createdAt,value
2018-11-10T00:00:05.150Z,12.85
2018-11-10T00:02:34.028Z,12.80
2018-11-10T00:05:02.946Z,12.25
2018-11-10T00:07:33.276Z,11.97
2018-11-10T00:10:02.199Z,12.06
2018-11-10T00:12:31.129Z,12.03
2018-11-10T00:15:00.031Z,12.10
2018-11-10T00:17:28.846Z,12.15
2018-11-10T00:19:57.708Z,12.19
2018-11-10T00:22:26.710Z,12.06
2018-11-10T00:24:55.627Z,12.07
2018-11-10T00:27:24.466Z,11.93
2018-11-10T00:29:53.425Z,11.92
2018-11-10T00:32:22.282Z,11.77
2018-11-10T00:34:51.222Z,11.67
2018-11-10T00:37:20.191Z,11.86
2018-11-10T00:39:49.054Z,11.81
2018-11-10T00:42:18.032Z,11.68
2018-11-10T00:44:46.951Z,11.76
2018-11-10T00:47:15.825Z,11.85
2018-11-10T00:49:44.822Z,11.89
2018-11-10T00:52:13.876Z,11.80
2018-11-10T00:54:42.889Z,11.65
2018-11-10T00:57:13.525Z,11.81
2018-11-10T00:59:42.492Z,11.79
2018-11-10T01:02:11.475Z,11.81
2018-11-10T01:04:40.431Z,11.87
2018-11-10T01:07:09.389Z,11.74
2018-11-10T01:09:38.240Z,11.83
2018-11-10T01:12:07.431Z,11.89
2018-11-10T01:14:36.725Z,11.83
2018-11-10T01:17:05.910Z,11.76
2018-11-10T01:19:34.875Z,11.93
2018-11-10T01:22:03.858Z,11.84
2018-11-10T01:24:32.801Z,11.86
2018-11-10T01:27:01.688Z,11.97
2018-11-10T01:29:30.603Z,11.89
2018-11-10T01:31:59.470Z,11.90
2018-11-10T01:34:28.385Z,12.01
2018-11-10T01:36:57.250Z,12.03
2018-11-10T01:39:26.067Z,12.14
2018-11-10T01:41:55.131Z,11.96
2018-11-10T01:44:24.084Z,12.08
2018-11-10T01:46:52.927Z,12.14
2018-11-10T01:49:21.847Z,12.06
2018-11-10T01:51:50.944Z,12.04
2018-11-10T01:54:20.596Z,11.99
2018-11-10T01:56:49.492Z,12.18
2018-11-10T01:59:18.447Z,12.21
2018-11-10T02:01:47.317Z,12.26
2018-11-10T02:04:16.194Z,12.23
2018-11-10T02:06:45.230Z,12.49
2018-11-10T02:09:14.201Z,12.59
2018-11-10T02:11:43.117Z,12.71
2018-11-10T02:14:12.096Z,12.80
2018-11-10T02:16:41.000Z,12.89
2018-11-10T02:19:09.901Z,12.75
2018-11-10T02:21:38.810Z,12.61
2018-11-10T02:24:07.757Z,12.75
2018-11-10T02:26:36.751Z,12.79
2018-11-10T02:29:05.718Z,12.78
2018-11-10T02:31:34.664Z,12.79
2018-11-10T02:34:03.607Z,12.81
2018-11-10T02:36:32.518Z,12.76
2018-11-10T02:39:01.401Z,12.77
2018-11-10T02:41:30.379Z,12.64
2018-11-10T02:43:59.270Z,12.56
2018-11-10T02:46:28.149Z,12.36
2018-11-10T02:48:57.118Z,12.23
2018-11-10T02:51:26.011Z,12.18
2018-11-10T02:53:54.878Z,12.29
2018-11-10T02:56:23.793Z,12.18
2018-11-10T02:58:52.731Z,12.16
2018-11-10T03:01:21.658Z,12.28
2018-11-10T03:03:50.662Z,12.39
2018-11-10T03:06:19.491Z,12.52
2018-11-10T03:08:48.418Z,12.41
2018-11-10T03:11:17.296Z,12.26
2018-11-10T03:13:46.118Z,12.22
2018-11-10T03:16:15.064Z,12.34
2018-11-10T03:18:43.952Z,12.35
2018-11-10T03:21:12.825Z,12.48
2018-11-10T03:23:41.754Z,12.56
2018-11-10T03:26:10.815Z,12.65
2018-11-10T03:28:39.751Z,12.66
2018-11-10T03:31:08.675Z,12.67
2018-11-10T03:33:37.571Z,12.57
2018-11-10T03:36:06.510Z,12.34
2018-11-10T03:38:35.405Z,12.31
2018-11-10T03:41:04.380Z,12.32
2018-11-10T03:43:33.399Z,12.14
2018-11-10T03:46:02.251Z,12.22
2018-11-10T03:48:31.291Z,12.41
2018-11-10T03:51:00.205Z,12.38
2018-11-10T03:53:29.090Z,12.15
2018-11-10T03:55:58.036Z,12.03
2018-11-10T03:58:27.105Z,11.99
2018-11-10T04:00:56.014Z,12.04
2018-11-10T04:03:24.955Z,12.21
2018-11-10T04:05:53.790Z,12.26
2018-11-10T04:08:22.743Z,12.24
2018-11-10T04:10:51.653Z,12.32
2018-11-10T04:13:20.602Z,12.34
2018-11-10T04:15:49.526Z,12.25
2018-11-10T04:18:18.465Z,12.15
2018-11-10T04:20:47.332Z,12.15
2018-11-10T04:23:16.219Z,12.18
2018-11-10T04:25:45.111Z,12.12
2018-11-10T04:28:14.076Z,12.07
2018-11-10T04:30:43.023Z,11.99
2018-11-10T04:33:11.998Z,12.05
2018-11-10T04:35:40.867Z,11.73
2018-11-10T04:38:09.766Z,11.84
2018-11-10T04:40:38.709Z,12.02
2018-11-10T04:43:07.626Z,12.25
2018-11-10T04:45:36.564Z,12.19
2018-11-10T04:48:05.498Z,12.09
2018-11-10T04:50:34.470Z,12.00
2018-11-10T04:53:03.299Z,12.14
2018-11-10T04:55:32.188Z,12.08
2018-11-10T04:58:01.062Z,12.18
2018-11-10T05:00:29.934Z,12.34
2018-11-10T05:02:58.814Z,12.41
2018-11-10T05:05:27.659Z,12.41
2018-11-10T05:07:56.572Z,12.46
2018-11-10T05:10:25.418Z,12.57
2018-11-10T05:12:54.338Z,12.64
2018-11-10T05:15:23.294Z,12.65
2018-11-10T05:17:52.138Z,12.68
2018-11-10T05:20:21.097Z,12.70
2018-11-10T05:22:50.048Z,12.88
2018-11-10T05:25:18.912Z,12.88
2018-11-10T05:27:47.853Z,12.95
2018-11-10T05:30:16.817Z,12.91
2018-11-10T05:32:45.634Z,12.95
2018-11-10T05:35:14.543Z,13.04
2018-11-10T05:37:43.507Z,12.95
2018-11-10T05:40:12.787Z,12.85
2018-11-10T05:42:41.922Z,12.93
2018-11-10T05:45:12.113Z,12.94
2018-11-10T05:47:41.016Z,12.90
2018-11-10T05:50:10.282Z,13.00
2018-11-10T05:52:39.130Z,12.85
2018-11-10T05:55:08.753Z,12.94
2018-11-10T05:57:43.178Z,12.92
2018-11-10T06:00:13.526Z,12.86
2018-11-10T06:02:43.005Z,12.88
2018-11-10T06:05:12.556Z,12.79
2018-11-10T06:07:41.470Z,12.66
2018-11-10T06:10:11.680Z,12.75
2018-11-10T06:12:40.469Z,12.70
2018-11-10T06:15:10.123Z,12.68
2018-11-10T06:17:39.116Z,12.43
2018-11-10T06:20:09.865Z,12.61
2018-11-10T06:22:38.770Z,12.98
2018-11-10T06:25:08.534Z,13.17
2018-11-10T06:27:37.406Z,13.27
2018-11-10T06:30:08.278Z,13.29
2018-11-10T06:32:37.689Z,13.22
2018-11-10T06:35:06.744Z,13.32
2018-11-10T06:37:35.708Z,13.04
2018-11-10T06:40:05.161Z,12.87
2018-11-10T06:42:34.022Z,12.83
2018-11-10T06:45:03.325Z,12.87
2018-11-10T06:47:32.275Z,12.88
2018-11-10T06:50:01.215Z,12.85
2018-11-10T06:52:30.102Z,13.05
2018-11-10T06:54:58.963Z,13.06
2018-11-10T06:57:27.842Z,13.34
2018-11-10T06:59:56.694Z,13.56
2018-11-10T07:02:25.674Z,13.74
2018-11-10T07:04:54.528Z,13.71
2018-11-10T07:07:23.518Z,13.78
2018-11-10T07:09:52.394Z,13.79
2018-11-10T07:12:21.310Z,14.10
2018-11-10T07:14:50.162Z,14.34
2018-11-10T07:17:19.094Z,14.54
2018-11-10T07:19:47.958Z,14.64
2018-11-10T07:22:16.846Z,14.79
2018-11-10T07:24:45.895Z,14.97
2018-11-10T07:27:14.735Z,15.17
2018-11-10T07:29:43.589Z,15.28
2018-11-10T07:32:12.542Z,15.27
2018-11-10T07:34:41.443Z,15.41
2018-11-10T07:37:10.408Z,14.39
2018-11-10T07:39:39.519Z,14.71
2018-11-10T07:42:08.555Z,15.00
2018-11-10T07:44:37.499Z,15.09
2018-11-10T07:47:06.791Z,15.23
2018-11-10T07:49:37.020Z,15.53
2018-11-10T07:52:06.314Z,15.55
2018-11-10T07:54:35.249Z,15.31
2018-11-10T07:57:04.180Z,15.50
2018-11-10T07:59:33.044Z,15.49
2018-11-10T08:02:01.945Z,15.71
2018-11-10T08:04:31.835Z,16.06
2018-11-10T08:07:00.802Z,16.16
2018-11-10T08:09:29.663Z,16.24
2018-11-10T08:12:00.071Z,16.14
2018-11-10T08:14:28.797Z,16.10
2018-11-10T08:16:57.690Z,16.10
2018-11-10T08:19:26.605Z,16.08
2018-11-10T08:21:55.526Z,16.10
2018-11-10T08:24:24.471Z,16.15
2018-11-10T08:26:53.340Z,15.96
2018-11-10T08:29:22.303Z,16.03
2018-11-10T08:31:52.679Z,16.22
2018-11-10T08:34:21.522Z,16.28
2018-11-10T08:36:50.413Z,16.26
2018-11-10T08:39:19.442Z,16.16
2018-11-10T08:41:48.419Z,16.31
2018-11-10T08:44:17.404Z,16.24
2018-11-10T08:46:46.625Z,16.36
2018-11-10T08:49:16.068Z,16.33
2018-11-10T08:51:47.656Z,16.42
2018-11-10T08:54:16.616Z,16.37
2018-11-10T08:56:45.542Z,16.48
2018-11-10T08:59:14.481Z,16.59
2018-11-10T09:01:43.506Z,16.60
2018-11-10T09:04:12.355Z,16.51
2018-11-10T09:06:41.323Z,16.53
2018-11-10T09:09:11.311Z,16.55
2018-11-10T09:11:40.204Z,16.61
2018-11-10T09:14:09.404Z,16.63
2018-11-10T09:16:38.327Z,16.76
2018-11-10T09:19:07.308Z,16.72
2018-11-10T09:21:36.343Z,16.75
2018-11-10T09:24:05.590Z,16.56
2018-11-10T09:26:34.532Z,16.66
2018-11-10T09:29:03.416Z,16.69
2018-11-10T09:31:32.264Z,16.74
2018-11-10T09:34:01.181Z,16.54
2018-11-10T09:36:30.242Z,16.60
2018-11-10T09:38:59.087Z,16.60
2018-11-10T09:41:28.107Z,16.44
2018-11-10T09:43:57.002Z,16.45
2018-11-10T09:46:26.068Z,16.42
2018-11-10T09:48:54.938Z,16.46
2018-11-10T09:51:23.893Z,16.54
2018-11-10T09:53:52.917Z,16.39
2018-11-10T09:56:22.040Z,16.13
2018-11-10T09:58:50.932Z,16.38
2018-11-10T10:01:20.067Z,16.27
2018-11-10T10:03:51.296Z,16.40
2018-11-10T10:06:20.315Z,16.37
2018-11-10T10:08:49.267Z,16.33
2018-11-10T10:11:18.224Z,16.31
2018-11-10T10:13:47.155Z,16.35
2018-11-10T10:16:16.437Z,16.48
2018-11-10T10:18:45.276Z,16.67
2018-11-10T10:21:14.157Z,16.48
2018-11-10T10:23:43.079Z,16.57
2018-11-10T10:26:12.007Z,16.49
2018-11-10T10:28:41.200Z,16.65
2018-11-10T10:31:10.099Z,16.60
2018-11-10T10:33:39.025Z,16.71
2018-11-10T10:36:07.972Z,16.75
2018-11-10T10:38:37.247Z,16.83
2018-11-10T10:41:06.540Z,16.94
2018-11-10T10:43:35.462Z,16.90
2018-11-10T10:46:04.585Z,16.82
2018-11-10T10:48:33.651Z,16.59
2018-11-10T10:51:02.619Z,16.75
2018-11-10T10:53:31.496Z,16.84
2018-11-10T10:56:01.940Z,16.96
2018-11-10T10:58:30.942Z,17.00
2018-11-10T11:01:04.871Z,16.83
2018-11-10T11:03:38.923Z,16.92
2018-11-10T11:06:07.865Z,16.94
2018-11-10T11:08:36.751Z,16.84
2018-11-10T11:11:05.886Z,16.83
2018-11-10T11:13:34.774Z,16.77
2018-11-10T11:16:03.747Z,16.86
2018-11-10T11:18:32.709Z,16.90
2018-11-10T11:21:01.584Z,16.91
2018-11-10T11:23:30.879Z,16.97
2018-11-10T11:25:59.834Z,16.91
2018-11-10T11:28:28.721Z,16.94
2018-11-10T11:30:57.734Z,16.94
2018-11-10T11:33:26.731Z,16.98
2018-11-10T11:35:55.687Z,16.89
2018-11-10T11:38:24.648Z,16.90
2018-11-10T11:40:53.570Z,16.89
2018-11-10T11:43:22.527Z,16.82
2018-11-10T11:45:52.608Z,16.88
2018-11-10T11:48:21.574Z,16.86
2018-11-10T11:50:50.546Z,16.91
2018-11-10T11:53:20.806Z,16.89
2018-11-10T11:55:49.692Z,16.85
2018-11-10T11:58:18.674Z,16.85
2018-11-10T12:00:47.479Z,16.69
2018-11-10T12:03:16.435Z,16.62
2018-11-10T12:05:45.299Z,16.72
2018-11-10T12:08:14.261Z,16.77
2018-11-10T12:10:43.113Z,16.68
2018-11-10T12:13:12.043Z,16.73
2018-11-10T12:15:40.987Z,16.63
2018-11-10T12:18:09.895Z,16.62
2018-11-10T12:20:38.824Z,16.82
2018-11-10T12:23:09.169Z,16.64
2018-11-10T12:25:38.052Z,16.66
2018-11-10T12:28:06.944Z,16.72
2018-11-10T12:30:35.923Z,16.61
2018-11-10T12:33:04.806Z,16.57
2018-11-10T12:35:33.709Z,16.53
2018-11-10T12:38:04.127Z,16.43
2018-11-10T12:40:33.064Z,16.32
2018-11-10T12:43:01.978Z,16.27
2018-11-10T12:45:32.111Z,16.07
2018-11-10T12:48:01.052Z,16.05
2018-11-10T12:50:29.971Z,16.01
2018-11-10T12:52:58.939Z,15.97
2018-11-10T12:55:27.874Z,16.08
2018-11-10T12:57:56.879Z,16.02
2018-11-10T13:00:27.282Z,15.91
2018-11-10T13:02:56.180Z,15.89
2018-11-10T13:05:25.070Z,15.90
2018-11-10T13:07:54.085Z,15.93
2018-11-10T13:10:23.026Z,16.06
2018-11-10T13:12:52.022Z,16.14
2018-11-10T13:15:22.126Z,16.18
2018-11-10T13:17:51.059Z,16.07
2018-11-10T13:20:19.959Z,16.05
2018-11-10T13:22:48.913Z,16.15
2018-11-10T13:25:17.847Z,16.18
2018-11-10T13:27:46.743Z,16.19
2018-11-10T13:30:16.219Z,16.22
2018-11-10T13:32:45.135Z,16.21
2018-11-10T13:35:13.992Z,16.28
2018-11-10T13:37:42.930Z,16.24
2018-11-10T13:40:12.196Z,16.07
2018-11-10T13:42:41.076Z,16.01
2018-11-10T13:45:11.533Z,16.06
2018-11-10T13:47:40.487Z,16.61
2018-11-10T13:50:10.751Z,17.17
2018-11-10T13:52:40.934Z,17.37
2018-11-10T13:55:09.635Z,17.58
2018-11-10T13:57:38.851Z,17.95
2018-11-10T14:00:11.936Z,17.93
2018-11-10T14:02:40.871Z,17.47
2018-11-10T14:05:09.828Z,17.83
2018-11-10T14:07:40.068Z,17.65
2018-11-10T14:10:10.670Z,17.49
2018-11-10T14:12:40.103Z,17.55
2018-11-10T14:15:10.555Z,17.30
2018-11-10T14:17:39.894Z,17.18
2018-11-10T14:20:11.261Z,17.24
2018-11-10T14:22:40.115Z,17.28
2018-11-10T14:25:12.458Z,17.03
2018-11-10T14:27:42.147Z,16.96
2018-11-10T14:30:13.128Z,16.78
2018-11-10T14:32:42.630Z,16.95
2018-11-10T14:35:12.100Z,16.58
2018-11-10T14:37:41.135Z,16.50
2018-11-10T14:40:12.392Z,16.09
2018-11-10T14:42:42.130Z,15.69
2018-11-10T14:45:12.834Z,15.53
2018-11-10T14:47:42.339Z,15.37
2018-11-10T14:50:12.138Z,15.26
2018-11-10T14:52:41.273Z,15.08
2018-11-10T14:55:10.968Z,15.00
2018-11-10T14:57:39.962Z,14.93
2018-11-10T15:00:17.483Z,14.85
2018-11-10T15:02:46.432Z,14.68
2018-11-10T15:05:15.382Z,14.61
2018-11-10T15:07:44.908Z,14.58
2018-11-10T15:10:15.135Z,14.51
2018-11-10T15:12:44.722Z,14.48
2018-11-10T15:15:14.876Z,14.36
2018-11-10T15:17:44.025Z,14.30
2018-11-10T15:20:15.146Z,14.31
2018-11-10T15:22:44.101Z,14.34
2018-11-10T15:25:14.437Z,14.26
2018-11-10T15:27:43.294Z,14.25
2018-11-10T15:30:15.246Z,14.31
2018-11-10T15:32:45.003Z,14.28
2018-11-10T15:35:15.097Z,14.32
2018-11-10T15:37:45.093Z,14.28
2018-11-10T15:40:17.462Z,14.28
2018-11-10T15:42:46.511Z,14.25
2018-11-10T15:45:17.698Z,14.18
2018-11-10T15:47:46.754Z,14.14
2018-11-10T15:50:16.845Z,14.14
2018-11-10T15:52:45.752Z,14.07
2018-11-10T15:55:16.161Z,14.05
2018-11-10T15:57:45.166Z,13.97
2018-11-10T16:00:18.391Z,13.95
2018-11-10T16:02:47.371Z,13.87
2018-11-10T16:05:17.494Z,13.88
2018-11-10T16:07:46.459Z,13.86
2018-11-10T16:10:15.409Z,13.75
2018-11-10T16:12:44.346Z,13.67
2018-11-10T16:15:14.682Z,13.68
2018-11-10T16:17:43.753Z,13.60
2018-11-10T16:20:15.803Z,13.53
2018-11-10T16:22:46.702Z,13.56
2018-11-10T16:25:15.802Z,13.51
2018-11-10T16:27:45.003Z,13.45
2018-11-10T16:30:16.099Z,13.42
2018-11-10T16:32:45.382Z,13.41
2018-11-10T16:37:48.341Z,13.34
2018-11-10T16:40:18.611Z,13.30
2018-11-10T16:42:48.161Z,13.31
2018-11-10T16:45:18.011Z,13.28
2018-11-10T16:47:47.152Z,13.30
2018-11-10T16:50:16.071Z,13.25
2018-11-10T16:52:46.818Z,13.19
2018-11-10T16:55:15.787Z,13.16
2018-11-10T16:57:46.143Z,13.13
2018-11-10T17:00:16.546Z,13.13
2018-11-10T17:02:45.490Z,13.12
2018-11-10T17:05:15.773Z,13.08
2018-11-10T17:07:44.879Z,13.03
2018-11-10T17:10:15.113Z,12.85
2018-11-10T17:12:45.609Z,12.73
2018-11-10T17:15:14.603Z,12.58
2018-11-10T17:17:43.569Z,12.62
2018-11-10T17:20:17.115Z,12.58
2018-11-10T17:22:46.452Z,12.54
2018-11-10T17:25:15.852Z,12.23
2018-11-10T17:27:45.190Z,11.91
2018-11-10T17:30:20.947Z,11.93
2018-11-10T17:32:49.867Z,12.14
2018-11-10T17:35:18.736Z,12.13
2018-11-10T17:37:47.722Z,12.02
2018-11-10T17:40:16.970Z,12.15
2018-11-10T17:42:45.842Z,12.15
2018-11-10T17:45:16.302Z,12.07
2018-11-10T17:47:45.440Z,11.96
2018-11-10T17:50:15.651Z,12.06
2018-11-10T17:52:44.809Z,12.10
2018-11-10T17:55:14.883Z,12.14
2018-11-10T17:57:45.628Z,12.08
2018-11-10T18:00:14.705Z,12.17
2018-11-10T18:02:43.634Z,12.18
2018-11-10T18:05:13.995Z,12.08
2018-11-10T18:07:44.503Z,12.10
2018-11-10T18:10:15.154Z,12.14
2018-11-10T18:12:45.072Z,12.06
2018-11-10T18:15:14.698Z,12.03
2018-11-10T18:17:43.896Z,12.00
2018-11-10T18:20:14.258Z,12.00
2018-11-10T18:22:45.152Z,11.99
2018-11-10T18:25:14.121Z,12.05
2018-11-10T18:27:43.163Z,12.03
2018-11-10T18:30:13.838Z,11.93
2018-11-10T18:32:42.962Z,11.94
2018-11-10T18:35:12.553Z,11.94
2018-11-10T18:37:42.122Z,11.83
2018-11-10T18:40:11.221Z,11.80
2018-11-10T18:42:40.139Z,11.73
2018-11-10T18:45:10.255Z,11.83
2018-11-10T18:47:39.730Z,11.87
2018-11-10T18:50:11.865Z,11.81
2018-11-10T18:52:40.936Z,11.77
2018-11-10T18:55:10.047Z,11.81
2018-11-10T18:57:39.286Z,11.81
2018-11-10T19:00:12.374Z,11.66
2018-11-10T19:02:41.510Z,11.53
2018-11-10T19:05:12.086Z,11.69
2018-11-10T19:07:40.990Z,11.67
2018-11-10T19:10:11.910Z,11.78
2018-11-10T19:12:41.453Z,11.85
2018-11-10T19:15:12.687Z,11.75
2018-11-10T19:17:41.830Z,11.71
2018-11-10T19:20:11.612Z,11.84
2018-11-10T19:22:40.793Z,11.85
2018-11-10T19:25:11.111Z,11.84
2018-11-10T19:27:40.191Z,11.76
2018-11-10T19:30:13.335Z,11.66
2018-11-10T19:32:42.622Z,11.68
2018-11-10T19:35:12.280Z,11.86
2018-11-10T19:37:41.245Z,11.86
2018-11-10T19:40:12.776Z,11.89
2018-11-10T19:42:42.629Z,11.87
2018-11-10T19:45:11.858Z,11.83
2018-11-10T19:47:42.025Z,11.83
2018-11-10T19:50:11.802Z,11.87
2018-11-10T19:52:40.887Z,11.80
2018-11-10T19:55:13.625Z,11.83
2018-11-10T19:57:42.725Z,11.78
2018-11-10T20:00:16.698Z,11.70
2018-11-10T20:02:45.827Z,11.70
2018-11-10T20:05:14.764Z,11.69
2018-11-10T20:10:03.487Z,11.69
2018-11-10T20:12:32.412Z,11.61
2018-11-10T20:15:06.794Z,11.59
2018-11-10T20:17:35.647Z,11.62
2018-11-10T20:20:04.670Z,11.45
2018-11-10T20:22:34.978Z,11.41
2018-11-10T20:25:04.040Z,11.47
2018-11-10T20:27:33.003Z,11.52
2018-11-10T20:30:03.295Z,11.56
2018-11-10T20:32:32.289Z,11.41
2018-11-10T20:35:01.199Z,11.39
2018-11-10T20:37:31.382Z,11.49
2018-11-10T20:40:00.226Z,11.41
2018-11-10T20:42:29.209Z,11.38
2018-11-10T20:44:58.233Z,11.37
2018-11-10T20:47:27.090Z,11.28
2018-11-10T20:49:55.995Z,11.23
2018-11-10T20:52:24.976Z,11.09
2018-11-10T20:54:53.988Z,10.96
2018-11-10T20:57:22.924Z,10.98
2018-11-10T20:59:52.002Z,11.02
2018-11-10T21:02:21.008Z,10.95
2018-11-10T21:04:49.962Z,10.83
2018-11-10T21:07:18.827Z,10.48
2018-11-10T21:09:47.791Z,10.38
2018-11-10T21:12:17.890Z,10.28
2018-11-10T21:14:46.854Z,10.06
2018-11-10T21:17:17.255Z,10.03
2018-11-10T21:19:46.147Z,9.83
2018-11-10T21:22:15.084Z,9.70
2018-11-10T21:24:44.337Z,9.81
2018-11-10T21:27:13.223Z,9.97
2018-11-10T21:29:42.236Z,9.98
2018-11-10T21:32:11.105Z,10.00
2018-11-10T21:34:39.971Z,10.12
2018-11-10T21:37:08.944Z,10.23
2018-11-10T21:39:37.850Z,10.30
2018-11-10T21:42:06.337Z,10.38
2018-11-10T21:44:35.295Z,10.29
2018-11-10T21:47:04.235Z,10.26
2018-11-10T21:49:33.349Z,10.32
2018-11-10T21:52:02.152Z,10.32
2018-11-10T21:54:31.057Z,10.24
2018-11-10T21:56:59.978Z,10.26
2018-11-10T21:59:28.852Z,10.31
2018-11-10T22:01:57.763Z,10.19
2018-11-10T22:04:26.684Z,10.10
2018-11-10T22:06:55.628Z,10.04
2018-11-10T22:09:24.649Z,9.94
2018-11-10T22:11:53.500Z,9.78
2018-11-10T22:14:22.382Z,9.82
2018-11-10T22:16:51.286Z,9.74
2018-11-10T22:19:20.291Z,9.71
2018-11-10T22:21:49.215Z,9.70
2018-11-10T22:24:18.166Z,9.73
2018-11-10T22:26:47.090Z,9.68
2018-11-10T22:29:16.024Z,9.56
2018-11-10T22:31:44.914Z,9.58
2018-11-10T22:34:14.278Z,9.42
2018-11-10T22:36:43.246Z,9.28
2018-11-10T22:39:12.241Z,9.29
2018-11-10T22:41:41.098Z,9.18
2018-11-10T22:44:10.044Z,9.24
2018-11-10T22:46:38.978Z,9.31
2018-11-10T22:49:07.888Z,9.28
2018-11-10T22:51:36.870Z,9.40
2018-11-10T22:54:05.920Z,9.50
2018-11-10T22:56:34.818Z,9.43
2018-11-10T22:59:03.816Z,9.40
2018-11-10T23:01:33.818Z,9.39
2018-11-10T23:04:02.938Z,9.31
2018-11-10T23:06:31.810Z,9.18
2018-11-10T23:09:00.762Z,9.11
2018-11-10T23:11:29.686Z,9.15
2018-11-10T23:13:58.645Z,8.99
2018-11-10T23:16:27.554Z,9.05
2018-11-10T23:18:58.033Z,9.22
2018-11-10T23:21:27.211Z,8.99
2018-11-10T23:23:56.125Z,9.12
2018-11-10T23:26:25.107Z,9.17
2018-11-10T23:28:54.028Z,9.22
2018-11-10T23:31:22.930Z,9.05
2018-11-10T23:33:51.869Z,9.06
2018-11-10T23:36:20.783Z,9.15
2018-11-10T23:38:49.658Z,9.09
2018-11-10T23:41:18.615Z,9.22
2018-11-10T23:43:47.509Z,9.28
2018-11-10T23:46:16.327Z,9.28
2018-11-10T23:48:46.541Z,9.39
2018-11-10T23:51:15.515Z,9.31
2018-11-10T23:53:44.348Z,9.23
2018-11-10T23:56:13.270Z,9.19
2018-11-10T23:58:42.117Z,9.16
